Creston, Ohio
Current Conditions -  °F | °C
As of 7:56 AM on Friday 19 Dec 2014 (Local Time) from KBJJ Reporting Station
Haze Haze  
Wind Chill: 19°   Ceiling: 700
Heat Index: 28°   Visibility: 4mi
Dew Point: 26°   Wind: 9mph
Humidity: 92%   Direction: 300°WNW
Pressure: 30.22"   Gusts: NA
Location:  40.99°N, 81.89°W
Report Text: KBJJ 191256Z AUTO 30008KT 4SM BR OVC007 M02/M03 A3022 RMK AO2 SLP247 I1001 T10221033 TSNO
Loading
Personal Weather Stations






























Interactive Weather Map New forecast layout! Learn more

10-Day Weather Forecast

Advertisements
Track Severe Weather on mobile